Search flights

Caselle Airport, Torino (LIMF)

Airport Weather & NOTAM's

METAR for:LIMF (Torino/Caselle Arpt, TO, IT)
Text:LIMF 240750Z 06003KT 020V110 CAVOK 27/17 Q1014
Conditions at:0750 UTC 24 Jul 2024
Temperature: 27.0°C ( 81°F)
Dewpoint: 17.0°C ( 63°F) [RH = 54%]
Pressure (altimeter):29.94 inches Hg (1014.0 mb)
Winds:from the ENE (60 degrees) at 3 MPH (3 knots; 1.5 m/s)
Visibility:6 or more sm (10+ km)
Ceiling:ceiling and visibility are OK
Clouds:unknown
TAF for:LIMF (Torino/Caselle Arpt, TO, IT) issued at 0500 UTC 24 Jul 2024
Text:TAF LIMF 240500Z 2406/2506 VRB05KT 9999 FEW050
Forecast period:0600 UTC 24 July 2024 to 0600 UTC 25 July 2024
Forecast type:FROM: standard forecast or significant change
Winds:variable direction winds at 6 MPH (5 knots; 2.6 m/s)
Visibility:6 or more sm (10+ km)
Ceiling:at least 12,000 feet AGL
Clouds:few clouds at 5000 feet AGL

Live Departures & Arrivals

There are currently no arrivals or departures for this airport.

Departures History (last 12 months)

Flight No. Dest. Aircraft Date
SIC0904 LICC PMDG 737-8... 2024-07-07 10:54:35
SIC0128 LIRN CRJ700 AIR... 2024-07-03 19:46:46
SIC0103 GMMX PMDG 737-8... 2024-06-25 19:12:23
SIC1117 LICJ PMDG 737-8... 2024-06-10 15:00:01
BM119 LOWI B737-800X... 2024-01-31 13:06:58
CHARTER LIRN FenixA320... 2024-01-30 19:47:19
BM5014 LIEE PMDG 737-8... 2024-01-24 21:33:18
SICBM1395 LICC FenixA320... 2023-12-26 16:24:54
SIC0103 LIPE PMDG 737-7... 2023-12-23 18:42:12
BM119 LIRQ Money M20R... 2023-12-20 11:33:18
SIC1117 LICJ PMDG 737-8... 2023-12-14 17:07:41
SIC0103 LIBR PMDG 737-7... 2023-12-13 21:30:38
SIC0038 LIEO Cessna Cit... 2023-12-10 15:21:27
LIMF_TWR LIMF C172 2023-12-10 13:48:00
SIC0038 EPWA Cessna Cit... 2023-11-25 11:30:56
SIC0006 LIRF FenixA320... 2023-11-12 22:22:17
SIC0038 LFLJ Cessna 208... 2023-11-04 16:26:14
SIC0133 LICC Airbus A32... 2023-11-01 20:29:20
SIC LICC FenixA320... 2023-11-01 20:37:06
SIC0868 LICJ FenixA320... 2023-10-30 06:04:17
SIC0701 LTFM PMDG 737-8... 2023-10-29 17:52:21
SIC0701 LICC PMDG 737-8... 2023-10-29 22:22:06
SICBM1025 LICJ Airbus A32... 2023-10-22 19:33:46
SIC0649 LIRA CJ4 Citati... 2023-10-08 05:03:25
BM1955 LIPE Black Squa... 2023-10-07 14:16:58
SIC0904 LIRN CRJ1000 AI... 2023-09-11 19:45:01
SIC0054 LIRN PMDG 737-8... 2023-09-11 19:32:35
SIC0103 LXGB PMDG 737-7... 2023-09-10 13:26:30
SIC0103 LICJ PMDG 737-7... 2023-08-28 17:28:12
SIC0107 LICJ FenixA320... 2023-08-17 14:31:09
SIC0133 LICJ A20N 2023-08-14 19:15:00
SIC0904 LICC PMDG 737-8... 2023-08-07 07:42:26
BM1025 LICJ Airbus A32... 2023-08-07 08:03:46
SICBM1615 LIRF FenixA320... 2023-07-29 10:07:19

Arrivals History (last 12 months)

Flight No. Origin Aircraft Date
SIC0265 EDDF A300-600RF... 2024-05-06 20:33:17
BMV507 LIMJ A2A Piper... 2024-04-29 17:44:32
SPP-TR10 LFMN PMDG 737-8... 2024-03-29 21:44:17
BM3024 LIRN PMDG 737-8... 2024-02-25 22:48:20
SPP-TR10 LFMN Airbus A32... 2024-02-01 19:47:52
LIMF_TWR LIMF C172 2023-12-10 16:42:00
SIC204 LICJ Airbus A32... 2023-12-01 22:41:39
SPP-TR10 LFMN PMDG 737-8... 2023-11-25 00:55:50
SIC0701 LFMN PMDG 737-8... 2023-11-25 00:55:51
SIC0133 LIEO Airbus A32... 2023-11-18 21:43:09
SIC0107 LIEO Airbus A32... 2023-11-18 21:46:09
SIC2679 LICJ Airbus A32... 2023-11-11 15:05:17
SPP-TR10 LFMN FenixA320... 2023-11-05 07:28:54
SIC0038 LICC Airbus A32... 2023-11-04 07:59:22
SI0701 LIEE PMDG 737-8... 2023-10-28 22:03:44
SPP-TR10 LFMN A32N 2023-10-25 07:28:00
SPP-TR10 LFMN Airbus A32... 2023-10-23 18:28:34
SICBM1610 LIRF Airbus A32... 2023-10-22 15:30:18
SIC104 LICC NA 2023-10-22 18:36:50
SPP-TR10 LFMN PMDG 737-8... 2023-10-18 23:41:03
SIC1610 LIRF PMDG 737-8... 2023-10-07 09:25:22
SICSICLEG3 LIME Black Squa... 2023-10-06 16:15:22
SPP-TR10 LFMN PMDG 737-8... 2023-09-28 18:30:05
SIC0868 LFMN FenixA320... 2023-09-28 08:22:54
SPP-TR10 LFMN PMDG 737-8... 2023-09-27 13:30:17
SIC0107 LICJ FenixA320... 2023-09-11 18:02:12
SIC0904 EHRD PMDG 737-8... 2023-09-05 21:02:33
BM5013 LIBR Airbus A32... 2023-08-05 21:07:56
SIC0649 LEMD CJ4 Citati... 2023-08-03 07:39:03
1 LIPO Airbus A32... 2023-08-01 20:09:25
SIC0904 LIRA FenixA320... 2023-07-31 22:21:12
SICBM1020 LICJ FenixA320... 2023-07-25 21:43:52

Runway Information (Airport elevation: 958ft)

Runway 18 Length 10,843ft Width 197ft Elevation 958ft Surface Asphalt Heading 183
Runway 36 Length 10,843ft Width 197ft Elevation 958ft Surface Asphalt Heading 3

Airport Frequencies

Type APP/DEP Frequency 125.275 Mhz
Type APP/DEP Frequency 129.275 Mhz
Type ATIS Frequency 120.480 Mhz
Type Ground Frequency 121.705 Mhz
Type Tower Frequency 118.500 Mhz
Type Tower Frequency 121.705 Mhz
Type CTR Frequency 125.275 Mhz
Type CTR Frequency 129.275 Mhz

Airport Navaids

Type TACAN Ident CAS Frequency 109500 Khz
Type NDB Ident CAS Frequency 357 Khz
Type VOR-DME Ident CSL Frequency 116750 Khz
Type VOR-DME Ident TOP Frequency 114500 Khz
Type NDB Ident TOP Frequency 393 Khz